Time;durP1;ratioP1;P1;durP2;ratioP2;P2;SDS_P1;SDS_P2;PMS_P1;PMS_P2;Temp;Humidity;BMP_temperature;BMP_pressure;BME280_temperature;BME280_humidity;BME280_pressure;Samples;Min_cycle;Max_cycle;Signal;HPM_P1;HPM_P2
2023/06/20 00:02:12;;;;;;;0.10;0.10;;;;;;;20.38;72.81;97263.22;4981110;28;20125;-73
2023/06/20 00:04:39;;;;;;;0.10;0.10;;;;;;;20.45;72.31;97265.72;4982531;28;20510;-74
2023/06/20 00:07:08;;;;;;;0.10;0.10;;;;;;;20.44;72.53;97255.94;4985445;28;20058;-74
2023/06/20 00:09:36;;;;;;;0.10;0.10;;;;;;;20.50;72.62;97265.72;4979240;28;20047;-74
2023/06/20 00:12:04;;;;;;;0.10;0.10;;;;;;;20.64;71.63;97266.84;4979683;28;20046;-74
2023/06/20 00:14:32;;;;;;;0.03;0.03;;;;;;;20.91;70.32;97260.38;4978557;28;20046;-73
2023/06/20 00:16:59;;;;;;;0.00;0.00;;;;;;;20.85;70.57;97265.81;4975010;28;20042;-74
2023/06/20 00:19:27;;;;;;;0.10;0.10;;;;;;;20.86;70.60;97261.22;4978789;28;20043;-73
2023/06/20 00:21:54;;;;;;;0.05;0.05;;;;;;;20.86;70.31;97267.47;4981310;28;20066;-73
2023/06/20 00:24:23;;;;;;;0.10;0.10;;;;;;;20.70;70.60;97276.63;4975906;28;20066;-72
2023/06/20 00:26:51;;;;;;;0.00;0.00;;;;;;;20.60;71.07;97279.31;4968923;28;20085;-73
2023/06/20 00:29:18;;;;;;;0.10;0.10;;;;;;;20.38;72.16;97281.38;4975409;28;20326;-72
2023/06/20 00:31:46;;;;;;;0.10;0.10;;;;;;;20.45;71.98;97281.97;4979370;28;20042;-72
2023/06/20 00:34:15;;;;;;;0.03;0.03;;;;;;;20.56;71.97;97278.19;4979288;28;20569;-73
2023/06/20 00:36:43;;;;;;;0.10;0.10;;;;;;;20.64;71.32;97272.28;4987242;28;20096;-73
2023/06/20 00:39:11;;;;;;;0.13;0.13;;;;;;;20.69;71.09;97276.88;4984408;28;20129;-72
2023/06/20 00:41:40;;;;;;;0.10;0.10;;;;;;;20.68;70.84;97278.78;4972471;28;20573;-74
2023/06/20 00:44:08;;;;;;;0.13;0.13;;;;;;;20.59;71.07;97276.84;4978079;28;20581;-74
2023/06/20 00:46:38;;;;;;;0.10;0.10;;;;;;;20.51;71.18;97279.00;4985175;28;20054;-73
2023/06/20 00:49:06;;;;;;;0.03;0.03;;;;;;;20.60;70.75;97273.88;4996655;28;20141;-74
2023/06/20 00:51:34;;;;;;;0.20;0.20;;;;;;;20.57;70.84;97265.44;4982711;28;20153;-74
2023/06/20 00:54:02;;;;;;;0.15;0.15;;;;;;;20.59;70.70;97255.16;4980990;28;20034;-74
2023/06/20 00:56:30;;;;;;;0.10;0.10;;;;;;;20.52;70.70;97266.28;4984456;28;20046;-74
2023/06/20 00:58:59;;;;;;;0.03;0.03;;;;;;;20.47;70.84;97260.81;4987657;28;20043;-74
2023/06/20 01:01:31;;;;;;;0.03;0.03;;;;;;;20.41;70.51;97268.13;4988712;28;20097;-73
2023/06/20 01:04:00;;;;;;;0.03;0.03;;;;;;;20.30;71.01;97266.41;4976434;28;20494;-73
2023/06/20 01:06:35;;;;;;;0.10;0.10;;;;;;;20.22;71.21;97258.00;4988284;28;20080;-74
2023/06/20 01:09:08;;;;;;;0.03;0.03;;;;;;;20.20;71.29;97262.84;4981987;28;20105;-73
2023/06/20 01:11:43;;;;;;;0.10;0.10;;;;;;;20.14;71.47;97254.69;4980683;28;20056;-74
2023/06/20 01:14:17;;;;;;;0.10;0.10;;;;;;;20.07;71.78;97259.53;4983105;28;20057;-74
2023/06/20 01:16:48;;;;;;;0.00;0.00;;;;;;;19.99;71.95;97251.09;4994816;28;20050;-73
2023/06/20 01:19:24;;;;;;;0.10;0.10;;;;;;;19.86;72.78;97263.22;4987477;28;20125;-72
2023/06/20 01:21:56;;;;;;;0.03;0.03;;;;;;;19.86;72.94;97263.22;4967192;28;20118;-73
2023/06/20 01:24:30;;;;;;;0.08;0.08;;;;;;;19.92;72.79;97258.66;4975125;28;20049;-73
2023/06/20 01:27:02;;;;;;;0.03;0.03;;;;;;;19.84;73.16;97249.09;4978576;28;20049;-72
2023/06/20 01:29:32;;;;;;;;;;;;;;;19.84;73.58;97254.53;4984249;28;20149;-72
2023/06/20 01:32:03;;;;;;;0.03;0.03;;;;;;;19.96;72.70;97249.72;4968126;28;19922;-72
2023/06/20 01:34:32;;;;;;;0.10;0.10;;;;;;;19.77;73.95;97262.88;4978476;28;20478;-72
2023/06/20 01:37:01;;;;;;;0.03;0.03;;;;;;;19.77;73.82;97262.88;4982919;28;20363;-73
2023/06/20 01:39:32;;;;;;;0.13;0.13;;;;;;;19.47;75.30;97268.06;4974446;28;20046;-73
2023/06/20 01:42:03;;;;;;;0.10;0.10;;;;;;;19.55;74.64;97277.63;4973299;28;20162;-73
2023/06/20 01:44:32;;;;;;;0.10;0.10;;;;;;;19.64;74.32;97278.78;4974702;28;20502;-73
2023/06/20 01:47:02;;;;;;;0.08;0.08;;;;;;;19.61;74.62;97279.31;4983671;28;20045;-73
2023/06/20 01:49:31;;;;;;;0.10;0.10;;;;;;;19.80;73.61;97277.81;5004160;28;20104;-73
2023/06/20 01:52:00;;;;;;;0.03;0.03;;;;;;;19.80;73.81;97277.81;4976491;28;20577;-73
2023/06/20 01:54:31;;;;;;;0.17;0.17;;;;;;;19.77;73.79;97265.59;4973347;28;20078;-73
2023/06/20 01:56:59;;;;;;;0.10;0.10;;;;;;;19.73;74.10;97266.38;4983105;28;20047;-74
2023/06/20 01:59:28;;;;;;;0.03;0.03;;;;;;;19.70;74.24;97266.91;4990087;28;20396;-74
2023/06/20 02:01:57;;;;;;;0.10;0.10;;;;;;;19.61;74.56;97255.75;4972718;28;20413;-74
2023/06/20 02:04:27;;;;;;;0.10;0.10;;;;;;;19.54;75.03;97262.44;4977590;28;20051;-74
2023/06/20 02:06:56;;;;;;;0.13;0.13;;;;;;;19.52;74.93;97261.91;4983526;28;20049;-74
2023/06/20 02:09:27;;;;;;;0.10;0.10;;;;;;;19.68;73.93;97269.88;4970291;28;20418;-74
2023/06/20 02:11:56;;;;;;;0.03;0.03;;;;;;;19.79;73.28;97265.34;4986349;28;20486;-75
2023/06/20 02:14:25;;;;;;;0.10;0.10;;;;;;;19.51;74.73;97271.94;4970773;28;20046;-74
2023/06/20 02:16:53;;;;;;;0.03;0.03;;;;;;;19.42;75.05;97255.28;4988717;28;20510;-74
2023/06/20 02:19:21;;;;;;;0.13;0.13;;;;;;;19.50;74.41;97258.66;4985873;28;20391;-74
2023/06/20 02:21:49;;;;;;;0.10;0.10;;;;;;;19.54;74.28;97265.97;4965641;28;20038;-74
2023/06/20 02:24:19;;;;;;;0.08;0.08;;;;;;;19.53;74.08;97260.81;4971549;28;20063;-74
2023/06/20 02:26:48;;;;;;;0.05;0.05;;;;;;;19.47;74.32;97261.84;4974176;28;20050;-73
2023/06/20 02:29:18;;;;;;;0.10;0.10;;;;;;;19.49;74.07;97257.00;4988310;28;20426;-73
2023/06/20 02:31:49;;;;;;;0.10;0.10;;;;;;;19.62;73.35;97262.00;4978348;28;20042;-71
2023/06/20 02:34:21;;;;;;;0.13;0.13;;;;;;;19.56;73.36;97261.13;4975788;28;20451;-73
2023/06/20 02:36:49;;;;;;;0.10;0.10;;;;;;;19.28;75.05;97261.44;4969082;28;20055;-72
2023/06/20 02:39:17;;;;;;;0.10;0.10;;;;;;;19.10;75.67;97257.22;4975628;28;20057;-74
2023/06/20 02:41:46;;;;;;;0.03;0.03;;;;;;;19.09;75.46;97244.75;4970733;28;20043;-72
2023/06/20 02:44:14;;;;;;;0.10;0.10;;;;;;;19.13;75.58;97247.75;4973359;28;20042;-72
2023/06/20 02:46:52;;;;;;;0.10;0.10;;;;;;;18.99;75.92;97244.66;4984947;28;20377;-72
2023/06/20 02:49:24;;;;;;;0.10;0.10;;;;;;;18.95;76.04;97243.53;4991345;28;20129;-72
2023/06/20 02:51:59;;;;;;;0.10;0.10;;;;;;;18.88;76.37;97237.53;4967546;28;20049;-73
2023/06/20 02:54:32;;;;;;;0.10;0.10;;;;;;;18.98;75.66;97245.75;4980434;28;20055;-72
2023/06/20 02:57:02;;;;;;;0.10;0.10;;;;;;;18.94;75.90;97244.63;5037373;23;20403;-73
2023/06/20 02:59:31;;;;;;;0.00;0.00;;;;;;;18.82;76.40;97246.66;5033480;28;20041;-72
2023/06/20 03:02:04;;;;;;;0.03;0.03;;;;;;;18.76;76.61;97250.41;5026784;28;20377;-72
2023/06/20 03:04:34;;;;;;;0.13;0.13;;;;;;;18.80;76.37;97243.38;5029659;28;20191;-72
2023/06/20 03:07:02;;;;;;;0.10;0.10;;;;;;;19.04;74.94;97237.41;5029651;28;20067;-72
2023/06/20 03:09:32;;;;;;;0.10;0.10;;;;;;;19.00;75.39;97236.28;5040602;28;20399;-72
2023/06/20 03:11:59;;;;;;;0.15;0.15;;;;;;;18.92;75.66;97244.03;5031852;28;20045;-72
2023/06/20 03:14:27;;;;;;;0.13;0.13;;;;;;;18.97;75.50;97241.41;5030320;28;20047;-72
2023/06/20 03:16:55;;;;;;;0.03;0.03;;;;;;;18.86;76.10;97250.50;5041693;28;20041;-72
2023/06/20 03:19:25;;;;;;;0.10;0.10;;;;;;;18.81;76.10;97261.25;5038705;28;20041;-73
2023/06/20 03:21:54;;;;;;;0.00;0.00;;;;;;;18.75;76.45;97265.81;5029630;28;20094;-73
2023/06/20 03:24:22;;;;;;;0.10;0.10;;;;;;;18.67;76.98;97268.97;5029221;28;20105;-73
2023/06/20 03:26:50;;;;;;;0.00;0.00;;;;;;;18.41;78.14;97273.22;5025623;28;20045;-73
2023/06/20 03:29:17;;;;;;;0.10;0.10;;;;;;;18.43;78.01;97278.38;5041950;28;20542;-73
2023/06/20 03:31:45;;;;;;;0.10;0.10;;;;;;;18.39;78.07;97274.53;5032643;28;20520;-73
2023/06/20 03:34:13;;;;;;;0.03;0.03;;;;;;;18.35;77.90;97276.94;5031108;28;20049;-73
2023/06/20 03:36:41;;;;;;;0.03;0.03;;;;;;;18.37;77.68;97274.00;5039956;28;20067;-73
2023/06/20 03:39:09;;;;;;;0.10;0.10;;;;;;;18.48;77.39;97271.13;5038669;28;20099;-73
2023/06/20 03:41:37;;;;;;;0.10;0.10;;;;;;;18.62;76.63;97275.13;5022990;28;20061;-73
2023/06/20 03:44:05;;;;;;;0.03;0.03;;;;;;;18.63;76.35;97278.66;5029843;28;20132;-72
2023/06/20 03:46:32;;;;;;;0.10;0.10;;;;;;;18.72;75.81;97279.00;5040948;28;20051;-72
2023/06/20 03:49:01;;;;;;;0.03;0.03;;;;;;;18.74;75.60;97280.38;5033230;28;20509;-72
2023/06/20 03:51:28;;;;;;;0.10;0.10;;;;;;;18.70;75.63;97273.84;5024502;28;20041;-73
2023/06/20 03:53:57;;;;;;;0.03;0.03;;;;;;;18.79;75.34;97276.94;5029946;28;20526;-74
2023/06/20 03:56:25;;;;;;;0.17;0.17;;;;;;;18.79;74.93;97287.75;5027856;28;20060;-72
2023/06/20 03:58:54;;;;;;;0.00;0.00;;;;;;;18.84;74.84;97291.31;5037634;28;20045;-73
2023/06/20 04:01:24;;;;;;;0.13;0.13;;;;;;;18.82;74.75;97295.34;5031587;28;20045;-73
2023/06/20 04:03:55;;;;;;;0.10;0.10;;;;;;;18.86;74.73;97288.34;5016965;28;20045;-73
2023/06/20 04:06:30;;;;;;;0.03;0.03;;;;;;;18.96;74.26;97294.69;5034747;28;20443;-73
2023/06/20 04:09:00;;;;;;;0.10;0.10;;;;;;;19.04;74.02;97298.81;5034723;28;20045;-72
2023/06/20 04:11:28;;;;;;;0.03;0.03;;;;;;;19.09;73.66;97300.75;5043771;28;20452;-72
2023/06/20 04:13:55;;;;;;;0.13;0.13;;;;;;;19.17;73.61;97303.00;5037444;28;20412;-72
2023/06/20 04:16:23;;;;;;;0.10;0.10;;;;;;;19.05;74.11;97312.09;5041949;28;20048;-73
2023/06/20 04:18:50;;;;;;;0.03;0.03;;;;;;;19.01;74.36;97318.25;5037245;28;20047;-73
2023/06/20 04:21:18;;;;;;;0.10;0.10;;;;;;;19.13;73.93;97313.50;5037647;28;20109;-73
2023/06/20 04:23:46;;;;;;;0.15;0.15;;;;;;;19.14;74.03;97312.44;5043524;28;20516;-73
2023/06/20 04:26:15;;;;;;;0.10;0.10;;;;;;;19.09;74.42;97303.47;5031883;28;20540;-73
2023/06/20 04:28:43;;;;;;;0.10;0.10;;;;;;;19.03;74.76;97305.28;5035013;28;20053;-73
2023/06/20 04:31:12;;;;;;;0.10;0.10;;;;;;;19.13;74.24;97305.38;5044338;28;20041;-73
2023/06/20 04:33:43;;;;;;;0.03;0.03;;;;;;;19.17;74.22;97303.81;5046413;28;20180;-73
2023/06/20 04:36:13;;;;;;;0.00;0.00;;;;;;;19.17;74.12;97300.28;5034807;28;20046;-73
2023/06/20 04:38:42;;;;;;;0.10;0.10;;;;;;;19.21;73.91;97302.22;5040488;28;20045;-73
2023/06/20 04:41:11;;;;;;;0.03;0.03;;;;;;;19.30;73.82;97306.09;5039479;28;20045;-74
2023/06/20 04:43:44;;;;;;;0.03;0.03;;;;;;;19.32;73.65;97312.06;5038243;28;20045;-73
2023/06/20 04:46:15;;;;;;;;;;;;;;;19.25;73.59;97307.94;5040814;28;20468;-73
2023/06/20 04:48:44;;;;;;;0.10;0.10;;;;;;;19.14;74.33;97311.63;5031253;28;19976;-73
2023/06/20 04:51:13;;;;;;;0.13;0.13;;;;;;;19.08;74.76;97301.84;5028338;28;20050;-73
2023/06/20 04:53:41;;;;;;;0.10;0.10;;;;;;;19.18;74.28;97312.75;5028673;28;20041;-73
2023/06/20 04:56:09;;;;;;;0.03;0.03;;;;;;;19.31;73.73;97317.75;5041219;28;20748;-73
2023/06/20 04:58:36;;;;;;;0.10;0.10;;;;;;;19.28;73.82;97310.97;5049745;28;20096;-73
2023/06/20 05:01:05;;;;;;;0.10;0.10;;;;;;;19.31;73.89;97318.53;5044749;28;20045;-72
2023/06/20 05:03:33;;;;;;;0.50;0.50;;;;;;;19.38;73.49;97323.75;5034541;28;20038;-74
2023/06/20 05:06:01;;;;;;;0.10;0.10;;;;;;;19.30;73.74;97322.34;5037773;28;20067;-73
2023/06/20 05:08:29;;;;;;;0.10;0.10;;;;;;;19.29;73.86;97336.13;5034316;28;20045;-73
2023/06/20 05:10:57;;;;;;;0.00;0.00;;;;;;;19.39;73.31;97342.47;5036946;28;20511;-73
2023/06/20 05:13:24;;;;;;;0.03;0.03;;;;;;;19.57;72.72;97344.00;5036930;28;20046;-73
2023/06/20 05:15:52;;;;;;;0.20;0.20;;;;;;;19.52;73.06;97356.69;5042047;28;20037;-73
2023/06/20 05:18:21;;;;;;;0.05;0.05;;;;;;;19.50;73.19;97364.25;5036875;28;20120;-73
2023/06/20 05:20:50;;;;;;;0.10;0.10;;;;;;;19.33;74.00;97402.19;5034020;28;20045;-73
2023/06/20 05:23:18;;;;;;;0.10;0.10;;;;;;;19.23;74.67;97393.97;5033605;28;20049;-72
2023/06/20 05:25:45;;;;;;;0.10;0.10;;;;;;;19.10;75.49;97403.34;5031739;28;20045;-72
2023/06/20 05:28:14;;;;;;;0.13;0.13;;;;;;;19.09;75.84;97417.94;5035672;28;20037;-72
2023/06/20 05:30:41;;;;;;;0.00;0.00;;;;;;;19.03;76.58;97408.09;5051339;28;20366;-72
2023/06/20 05:33:09;;;;;;;0.10;0.10;;;;;;;19.00;76.70;97403.19;5044472;28;20060;-72
2023/06/20 05:35:39;;;;;;;0.10;0.10;;;;;;;19.19;76.12;97409.91;5036718;28;20058;-72
2023/06/20 05:38:07;;;;;;;0.10;0.10;;;;;;;19.18;76.12;97408.28;5042151;28;20059;-72
2023/06/20 05:40:34;;;;;;;0.13;0.13;;;;;;;19.22;75.98;97400.47;5041444;28;20060;-72
2023/06/20 05:43:02;;;;;;;0.13;0.13;;;;;;;19.31;75.61;97402.44;5041740;28;20103;-72
2023/06/20 05:45:29;;;;;;;0.10;0.10;;;;;;;19.35;75.67;97405.47;5040819;28;20051;-72
2023/06/20 05:47:58;;;;;;;0.13;0.13;;;;;;;19.38;75.99;97403.09;5041509;28;20096;-72
2023/06/20 05:50:26;;;;;;;0.03;0.03;;;;;;;19.40;76.47;97376.59;5036356;28;20042;-72
2023/06/20 05:52:55;;;;;;;0.13;0.13;;;;;;;19.51;77.20;97365.88;5044124;28;20041;-72
2023/06/20 05:55:23;;;;;;;0.00;0.00;;;;;;;19.60;79.03;97383.28;5042266;28;20044;-72
2023/06/20 05:57:51;;;;;;;0.03;0.03;;;;;;;19.53;79.49;97407.84;5025561;28;20132;-72
2023/06/20 06:00:19;;;;;;;0.03;0.03;;;;;;;19.29;79.11;97410.03;5041323;28;20128;-72
2023/06/20 06:02:46;;;;;;;1.17;1.17;;;;;;;19.25;80.27;97417.00;5044625;28;20593;-72
2023/06/20 06:05:14;;;;;;;0.10;0.10;;;;;;;19.24;79.83;97411.84;5042727;28;20052;-72
2023/06/20 06:07:42;;;;;;;0.10;0.10;;;;;;;19.35;79.73;97409.00;5043640;28;20056;-73
2023/06/20 06:10:11;;;;;;;0.03;0.03;;;;;;;19.41;79.94;97394.44;5038328;28;20069;-72
2023/06/20 06:12:40;;;;;;;0.10;0.10;;;;;;;19.53;79.61;97388.06;5043166;28;20053;-72
2023/06/20 06:15:09;;;;;;;0.13;0.13;;;;;;;19.62;80.61;97376.50;5044009;28;20084;-72
2023/06/20 06:17:37;;;;;;;0.10;0.10;;;;;;;19.58;81.28;97385.44;5039778;28;20045;-72
2023/06/20 06:20:11;;;;;;;0.13;0.13;;;;;;;19.64;81.20;97387.91;5044332;28;20045;-72
2023/06/20 06:22:39;;;;;;;0.10;0.10;;;;;;;19.72;80.35;97368.50;5040431;28;20045;-72
2023/06/20 06:25:08;;;;;;;0.00;0.00;;;;;;;19.81;80.30;97359.91;5045145;28;20040;-72
2023/06/20 06:27:36;;;;;;;0.03;0.03;;;;;;;19.83;81.00;97366.66;5042438;28;20045;-73
2023/06/20 06:30:05;;;;;;;0.10;0.10;;;;;;;19.84;82.36;97381.03;5045952;28;20535;-72
2023/06/20 06:32:34;;;;;;;0.13;0.13;;;;;;;19.86;81.07;97371.56;5041793;28;20095;-72
2023/06/20 06:35:03;;;;;;;0.03;0.03;;;;;;;19.97;80.68;97376.00;5040705;28;20465;-72
2023/06/20 06:37:32;;;;;;;0.03;0.03;;;;;;;20.05;80.32;97377.41;5047095;28;20058;-72
2023/06/20 06:39:59;;;;;;;0.10;0.10;;;;;;;20.07;80.36;97376.06;5040599;28;20128;-73
2023/06/20 06:42:27;;;;;;;0.13;0.13;;;;;;;20.00;81.19;97374.66;5040279;28;20467;-72
2023/06/20 06:44:56;;;;;;;0.13;0.13;;;;;;;19.96;80.47;97373.53;5040548;28;20041;-72
2023/06/20 06:47:24;;;;;;;0.00;0.00;;;;;;;19.92;81.89;97364.31;5047636;28;20045;-72
2023/06/20 06:49:52;;;;;;;0.10;0.10;;;;;;;19.98;82.16;97361.38;5041063;28;20380;-70
2023/06/20 06:52:19;;;;;;;0.00;0.00;;;;;;;20.01;79.98;97371.69;5041089;28;20058;-72
2023/06/20 06:54:47;;;;;;;0.13;0.13;;;;;;;20.04;79.87;97373.88;5040265;28;20128;-72
2023/06/20 06:57:15;;;;;;;0.10;0.10;;;;;;;19.96;81.49;97374.34;5028628;28;20049;-72
2023/06/20 06:59:42;;;;;;;0.10;0.10;;;;;;;20.02;81.53;97370.63;5048465;28;20451;-72
2023/06/20 07:02:11;;;;;;;0.03;0.03;;;;;;;20.07;82.28;97359.81;5042047;28;20067;-72
2023/06/20 07:04:39;;;;;;;0.10;0.10;;;;;;;20.19;82.63;97366.94;5043547;28;20041;-72
2023/06/20 07:07:06;;;;;;;0.10;0.10;;;;;;;20.26;81.89;97362.91;5042391;28;20050;-72
2023/06/20 07:09:36;;;;;;;0.08;0.08;;;;;;;20.40;79.81;97363.28;5041879;28;20095;-71
2023/06/20 07:12:05;;;;;;;0.05;0.05;;;;;;;20.38;79.80;97360.84;5044024;28;20520;-72
2023/06/20 07:14:33;;;;;;;0.17;0.17;;;;;;;20.60;78.82;97365.28;5040924;28;20404;-72
2023/06/20 07:17:01;;;;;;;0.10;0.10;;;;;;;20.68;78.42;97354.75;5045089;28;20044;-72
2023/06/20 07:19:34;;;;;;;0.03;0.03;;;;;;;20.83;78.72;97351.28;5035349;28;20508;-72
2023/06/20 07:22:03;;;;;;;0.10;0.10;;;;;;;20.86;77.35;97354.28;5045880;28;20551;-72
2023/06/20 07:24:30;;;;;;;0.03;0.03;;;;;;;20.98;75.96;97353.22;5038384;28;20052;-72
2023/06/20 07:26:58;;;;;;;0.00;0.00;;;;;;;21.09;75.73;97344.81;5038052;28;20042;-72
2023/06/20 07:29:26;;;;;;;0.00;0.00;;;;;;;21.15;75.87;97345.66;5042358;28;20045;-72
2023/06/20 07:31:53;;;;;;;0.03;0.03;;;;;;;21.23;75.54;97340.56;5043092;28;20045;-72
2023/06/20 07:34:21;;;;;;;0.10;0.10;;;;;;;21.40;74.64;97340.28;5035284;28;20417;-72
2023/06/20 07:36:50;;;;;;;0.00;0.00;;;;;;;21.55;74.81;97340.31;5047719;28;20045;-72
2023/06/20 07:39:18;;;;;;;0.00;0.00;;;;;;;21.76;74.19;97340.31;5045391;28;20053;-72
2023/06/20 07:41:45;;;;;;;0.00;0.00;;;;;;;21.95;73.18;97335.94;5042345;28;20059;-72
2023/06/20 07:44:13;;;;;;;0.10;0.10;;;;;;;22.13;72.86;97340.03;5042413;28;20084;-72
2023/06/20 07:46:40;;;;;;;0.03;0.03;;;;;;;22.32;72.31;97331.00;5041709;28;20063;-72
2023/06/20 07:49:08;;;;;;;0.03;0.03;;;;;;;22.58;69.45;97331.75;5036905;28;20096;-72
2023/06/20 07:51:36;;;;;;;0.03;0.03;;;;;;;22.78;69.31;97333.59;5042069;28;20049;-72
2023/06/20 07:54:05;;;;;;;0.13;0.13;;;;;;;22.93;68.51;97328.09;5043975;28;20480;-72
2023/06/20 07:56:33;;;;;;;0.00;0.00;;;;;;;23.04;67.58;97324.22;5034102;28;20064;-72
2023/06/20 07:59:01;;;;;;;0.10;0.10;;;;;;;23.19;67.63;97319.75;5043997;28;20041;-72
2023/06/20 08:01:28;;;;;;;0.00;0.00;;;;;;;23.40;65.79;97326.69;5042290;28;20124;-72
2023/06/20 08:03:56;;;;;;;0.10;0.10;;;;;;;23.57;64.73;97315.41;5043601;28;20039;-73
2023/06/20 08:06:24;;;;;;;0.10;0.10;;;;;;;23.73;64.93;97322.38;5043002;28;20055;-72
2023/06/20 08:08:52;;;;;;;0.00;0.00;;;;;;;23.87;64.50;97317.09;5038366;28;20061;-72
2023/06/20 08:11:22;;;;;;;0.03;0.03;;;;;;;23.97;64.21;97323.28;5037474;28;20496;-72
2023/06/20 08:13:49;;;;;;;0.05;0.05;;;;;;;24.18;63.50;97318.44;5035115;28;20087;-72
2023/06/20 08:16:17;;;;;;;0.00;0.00;;;;;;;24.44;61.96;97319.78;5037275;28;20123;-72
2023/06/20 08:18:45;;;;;;;0.00;0.00;;;;;;;24.81;59.35;97312.81;5033299;28;20045;-72
2023/06/20 08:21:12;;;;;;;0.05;0.05;;;;;;;25.04;58.58;97314.69;5045284;28;20068;-72
2023/06/20 08:23:40;;;;;;;0.00;0.00;;;;;;;25.10;58.84;97312.72;5033788;28;20049;-72
2023/06/20 08:26:08;;;;;;;0.00;0.00;;;;;;;25.28;56.38;97311.06;5039060;28;20119;-72
2023/06/20 08:28:37;;;;;;;0.03;0.03;;;;;;;25.27;56.62;97309.44;5040138;28;20476;-72
2023/06/20 08:31:05;;;;;;;0.00;0.00;;;;;;;25.40;55.62;97308.72;5045763;28;20053;-72
2023/06/20 08:33:32;;;;;;;0.03;0.03;;;;;;;25.37;56.39;97303.81;5040111;28;20092;-72
2023/06/20 08:36:01;;;;;;;0.00;0.00;;;;;;;25.38;56.96;97308.19;5031077;28;20045;-72
2023/06/20 08:38:29;;;;;;;0.00;0.00;;;;;;;25.24;56.49;97305.38;5034212;28;20038;-72
2023/06/20 08:40:57;;;;;;;0.03;0.03;;;;;;;25.17;55.95;97313.16;5036389;28;20041;-72
2023/06/20 08:43:24;;;;;;;0.03;0.03;;;;;;;25.17;56.29;97310.41;5040723;28;20088;-72
2023/06/20 08:45:55;;;;;;;0.00;0.00;;;;;;;25.23;56.37;97309.22;5041448;28;20037;-72
2023/06/20 08:48:23;;;;;;;0.00;0.00;;;;;;;25.39;56.15;97316.09;5039192;28;20525;-72
2023/06/20 08:50:52;;;;;;;0.10;0.10;;;;;;;25.48;55.50;97311.56;5025436;28;20124;-72
2023/06/20 08:53:20;;;;;;;0.00;0.00;;;;;;;25.48;55.97;97308.84;5030791;28;20120;-72
2023/06/20 08:55:51;;;;;;;0.10;0.10;;;;;;;25.47;55.63;97314.59;5032452;28;20119;-72
2023/06/20 08:58:19;;;;;;;0.00;0.00;;;;;;;25.40;54.44;97317.72;5052015;22;20045;-74
2023/06/20 09:00:48;;;;;;;0.00;0.00;;;;;;;25.36;54.69;97315.88;5022246;28;20124;-76
2023/06/20 09:03:17;;;;;;;0.00;0.00;;;;;;;25.36;55.29;97324.06;5019430;28;20519;-74
2023/06/20 09:05:46;;;;;;;0.00;0.00;;;;;;;25.38;55.39;97319.94;5021891;28;20049;-74
2023/06/20 09:08:15;;;;;;;0.05;0.05;;;;;;;25.42;54.24;97328.38;5019014;28;20053;-74
2023/06/20 09:10:44;;;;;;;0.00;0.00;;;;;;;25.28;54.64;97330.22;5016807;28;20100;-74
2023/06/20 09:13:12;;;;;;;0.00;0.00;;;;;;;25.31;55.09;97330.44;5024413;28;20046;-74
2023/06/20 09:15:41;;;;;;;0.08;0.08;;;;;;;25.35;55.33;97333.38;5024311;28;20437;-73
2023/06/20 09:18:13;;;;;;;0.00;0.00;;;;;;;25.38;54.69;97332.78;5018952;28;20184;-74
2023/06/20 09:20:43;;;;;;;0.03;0.03;;;;;;;25.41;54.69;97337.66;5023888;28;20064;-74
2023/06/20 09:23:11;;;;;;;0.10;0.10;;;;;;;25.44;54.22;97331.59;5018467;28;20404;-73
2023/06/20 09:25:39;;;;;;;0.05;0.05;;;;;;;25.58;54.79;97336.03;5022453;28;20073;-74
2023/06/20 09:28:14;;;;;;;0.00;0.00;;;;;;;25.73;54.09;97334.19;5024279;28;20054;-74
2023/06/20 09:30:44;;;;;;;0.00;0.00;;;;;;;25.79;54.06;97332.97;5029722;28;20077;-74
2023/06/20 09:33:14;;;;;;;0.00;0.00;;;;;;;25.82;54.41;97335.94;5019049;28;20041;-73
2023/06/20 09:35:43;;;;;;;0.00;0.00;;;;;;;25.92;53.89;97327.56;5023556;28;20125;-73
2023/06/20 09:38:10;;;;;;;0.00;0.00;;;;;;;26.05;53.05;97325.16;5025132;28;20053;-74
2023/06/20 09:40:45;;;;;;;0.10;0.10;;;;;;;26.17;53.77;97330.94;5016504;28;20077;-74
2023/06/20 09:43:13;;;;;;;0.03;0.03;;;;;;;26.25;53.13;97325.63;5024105;28;20050;-74
2023/06/20 09:45:41;;;;;;;0.00;0.00;;;;;;;26.24;52.66;97317.69;5023672;28;20054;-74
2023/06/20 09:48:09;;;;;;;0.10;0.10;;;;;;;26.16;53.54;97326.63;5024683;28;20045;-74
2023/06/20 09:50:38;;;;;;;0.00;0.00;;;;;;;26.09;53.26;97329.72;5023518;28;20042;-74
2023/06/20 09:53:15;;;;;;;0.00;0.00;;;;;;;26.14;53.97;97326.91;5019457;28;20045;-71
2023/06/20 09:55:43;;;;;;;0.00;0.00;;;;;;;26.10;53.06;97325.06;5023389;28;20038;-72
2023/06/20 09:58:12;;;;;;;0.03;0.03;;;;;;;26.42;53.25;97319.56;5026119;28;20068;-73
2023/06/20 10:00:39;;;;;;;0.00;0.00;;;;;;;26.54;52.66;97322.63;5023301;28;20053;-73
2023/06/20 10:03:09;;;;;;;0.00;0.00;;;;;;;27.07;50.09;97313.06;5017225;28;20413;-72
2023/06/20 10:05:37;;;;;;;0.00;0.00;;;;;;;27.29;48.83;97316.66;5020669;28;20043;-72
2023/06/20 10:08:05;;;;;;;0.00;0.00;;;;;;;27.58;48.67;97309.97;5024646;28;20353;-71
2023/06/20 10:10:34;;;;;;;0.03;0.03;;;;;;;27.92;48.44;97307.47;5013842;28;20061;-72
2023/06/20 10:13:01;;;;;;;0.00;0.00;;;;;;;28.20;47.14;97307.31;5016950;28;20120;-72
2023/06/20 10:15:29;;;;;;;0.00;0.00;;;;;;;28.38;46.42;97306.28;5021074;28;20045;-72
2023/06/20 10:17:56;;;;;;;0.00;0.00;;;;;;;28.48;46.69;97305.97;5024598;28;20381;-73
2023/06/20 10:20:27;;;;;;;0.00;0.00;;;;;;;28.43;44.60;97311.63;5016285;28;20050;-72
2023/06/20 10:22:58;;;;;;;0.03;0.03;;;;;;;28.40;42.47;97309.50;5009696;28;20112;-73
2023/06/20 10:25:27;;;;;;;0.00;0.00;;;;;;;28.54;42.23;97307.47;5029009;28;20057;-72
2023/06/20 10:27:57;;;;;;;0.03;0.03;;;;;;;28.61;42.61;97299.56;5015403;28;20042;-72
2023/06/20 10:31:01;;;;;;;0.00;0.00;;;;;;;28.26;43.52;97303.31;5012899;28;20060;-73
2023/06/20 10:33:30;;;;;;;0.00;0.00;;;;;;;28.65;43.71;97297.81;5007669;28;20054;-72
2023/06/20 10:36:01;;;;;;;0.00;0.00;;;;;;;28.96;43.17;97295.00;5017926;28;20041;-72
2023/06/20 10:38:29;;;;;;;0.00;0.00;;;;;;;29.02;42.77;97288.22;5013192;28;20424;-73
2023/06/20 10:41:07;;;;;;;0.00;0.00;;;;;;;28.81;43.61;97303.69;5017455;28;20038;-72
2023/06/20 10:43:50;;;;;;;0.05;0.05;;;;;;;28.42;44.44;97290.78;5017493;28;20497;-72
2023/06/20 10:46:18;;;;;;;0.00;0.00;;;;;;;28.50;44.47;97281.75;5015071;28;20037;-72
2023/06/20 10:48:46;;;;;;;0.00;0.00;;;;;;;28.35;45.38;97272.00;5023528;28;20534;-73
2023/06/20 10:51:14;;;;;;;0.00;0.00;;;;;;;28.58;44.49;97275.47;5022535;28;20053;-72
2023/06/20 10:53:41;;;;;;;0.00;0.00;;;;;;;28.74;43.72;97276.66;5012130;28;20042;-72
2023/06/20 10:56:22;;;;;;;0.00;0.00;;;;;;;28.51;42.71;97268.84;5017039;28;20037;-72
2023/06/20 10:58:51;;;;;;;0.00;0.00;;;;;;;28.88;40.89;97268.28;5010667;28;20075;-72
2023/06/20 11:01:19;;;;;;;0.00;0.00;;;;;;;29.06;40.31;97260.91;5020600;28;20053;-73
2023/06/20 11:03:47;;;;;;;0.00;0.00;;;;;;;29.09;40.18;97258.31;5013786;28;20140;-72
2023/06/20 11:06:15;;;;;;;0.10;0.10;;;;;;;29.34;39.60;97259.44;5022974;28;20045;-72
2023/06/20 11:08:44;;;;;;;0.00;0.00;;;;;;;29.17;40.30;97257.47;5005963;28;20089;-72
2023/06/20 11:11:12;;;;;;;0.00;0.00;;;;;;;29.64;40.13;97252.16;5022902;28;20393;-72
2023/06/20 11:13:40;;;;;;;0.00;0.00;;;;;;;29.73;39.66;97254.88;5024052;28;20103;-72
2023/06/20 11:16:17;;;;;;;0.00;0.00;;;;;;;29.77;39.30;97255.88;5019801;28;20050;-72
2023/06/20 11:18:45;;;;;;;0.00;0.00;;;;;;;30.15;39.17;97245.72;5023908;28;20045;-73
2023/06/20 11:21:15;;;;;;;0.00;0.00;;;;;;;30.27;38.94;97243.09;5019744;28;20084;-72
2023/06/20 11:23:43;;;;;;;0.00;0.00;;;;;;;30.60;38.71;97228.69;5019093;28;20543;-73
2023/06/20 11:26:10;;;;;;;0.00;0.00;;;;;;;30.75;38.19;97236.38;5022124;28;20045;-72
2023/06/20 11:28:38;;;;;;;0.00;0.00;;;;;;;30.78;37.19;97227.44;5019966;28;20050;-72
2023/06/20 11:31:11;;;;;;;0.00;0.00;;;;;;;30.76;36.66;97221.44;5019535;28;20124;-73
2023/06/20 11:33:38;;;;;;;0.00;0.00;;;;;;;30.94;37.03;97227.66;5019773;28;20042;-72
2023/06/20 11:36:06;;;;;;;0.00;0.00;;;;;;;30.81;36.06;97213.00;5016662;28;20132;-73
2023/06/20 11:38:39;;;;;;;0.00;0.00;;;;;;;30.80;35.33;97219.63;5013187;28;20133;-73
2023/06/20 11:41:08;;;;;;;0.00;0.00;;;;;;;30.77;35.51;97219.50;5015936;28;20050;-73
2023/06/20 11:43:37;;;;;;;0.00;0.00;;;;;;;31.00;35.64;97213.31;5016612;28;20045;-73